Time;durP1;ratioP1;P1;durP2;ratioP2;P2;SDS_P1;SDS_P2;PMS_P1;PMS_P2;Temp;Humidity;BMP_temperature;BMP_pressure;BME280_temperature;BME280_humidity;BME280_pressure;Samples;Min_cycle;Max_cycle;Signal;HPM_P1;HPM_P2
2023/02/16 00:00:17;;;;;;;23.47;12.20;;;-0.20;99.90;;;;;;4972896;28;20424;-74
2023/02/16 00:02:42;;;;;;;25.53;12.93;;;-0.30;99.90;;;;;;4972318;28;20423;-74
2023/02/16 00:05:29;;;;;;;22.70;12.77;;;-0.30;99.90;;;;;;4973161;28;20511;-75
2023/02/16 00:07:57;;;;;;;21.53;12.40;;;-0.30;99.90;;;;;;4972999;28;20242;-74
2023/02/16 00:10:24;;;;;;;20.23;12.87;;;-0.30;99.90;;;;;;4974387;28;20496;-74
2023/02/16 00:15:34;;;;;;;22.20;12.70;;;-0.30;99.90;;;;;;4973110;28;20839;-75
2023/02/16 00:18:04;;;;;;;26.43;13.10;;;-0.30;99.90;;;;;;4973157;28;20471;-73
2023/02/16 00:20:30;;;;;;;20.20;13.27;;;-0.30;99.90;;;;;;4973160;28;20211;-76
2023/02/16 00:22:56;;;;;;;27.30;13.10;;;-0.30;99.90;;;;;;4973157;28;20469;-74
2023/02/16 00:25:21;;;;;;;31.30;13.73;;;-0.30;99.90;;;;;;4973414;28;20557;-74
2023/02/16 00:27:47;;;;;;;23.50;13.70;;;-0.40;99.90;;;;;;4972854;28;20182;-74
2023/02/16 00:30:18;;;;;;;30.13;12.30;;;-0.40;99.90;;;;;;4972600;28;20243;-77
2023/02/16 00:32:44;;;;;;;20.97;11.20;;;-0.40;99.90;;;;;;4972375;28;20707;-73
2023/02/16 00:35:14;;;;;;;19.20;13.30;;;-0.40;99.90;;;;;;4972645;28;20481;-74
2023/02/16 00:37:40;;;;;;;27.93;14.60;;;-0.40;99.90;;;;;;4954916;28;20681;-74
2023/02/16 00:40:06;;;;;;;19.50;12.23;;;-0.40;99.90;;;;;;4972596;28;20502;-74
2023/02/16 00:42:33;;;;;;;22.40;10.60;;;-0.40;99.90;;;;;;4972132;28;20223;-73
2023/02/16 00:44:59;;;;;;;21.10;11.47;;;-0.40;99.90;;;;;;4972422;28;20423;-73
2023/02/16 00:47:36;;;;;;;18.33;12.00;;;-0.40;99.90;;;;;;4972071;28;20423;-73
2023/02/16 00:50:06;;;;;;;21.50;10.87;;;-0.40;99.90;;;;;;4972533;28;20413;-73
2023/02/16 00:52:36;;;;;;;20.13;11.33;;;-0.50;99.90;;;;;;4971913;28;21006;-73
2023/02/16 00:55:08;;;;;;;19.57;11.80;;;-0.50;99.90;;;;;;4972401;28;20418;-75
2023/02/16 00:57:52;;;;;;;18.90;11.13;;;-0.50;99.90;;;;;;4971975;28;20480;-76
2023/02/16 01:00:22;;;;;;;20.57;10.60;;;-0.60;99.90;;;;;;4972266;28;20472;-73
2023/02/16 01:02:50;;;;;;;23.73;11.00;;;-0.60;99.90;;;;;;4972264;28;20449;-73
2023/02/16 01:05:16;;;;;;;19.87;10.23;;;-0.60;99.90;;;;;;4972119;28;20932;-74
2023/02/16 01:13:13;;;;;;;18.33;10.47;;;-0.70;99.90;;;;;;4972444;28;20942;-73
2023/02/16 01:15:39;;;;;;;22.43;11.60;;;-0.70;99.90;;;;;;4955719;28;20425;-74
2023/02/16 01:18:05;;;;;;;22.70;10.93;;;-0.70;99.90;;;;;;4956735;28;20559;-73
2023/02/16 01:20:32;;;;;;;21.83;11.80;;;-0.70;99.90;;;;;;4956870;28;20189;-73
2023/02/16 01:22:58;;;;;;;23.53;11.67;;;-0.70;99.90;;;;;;4956877;28;20443;-74
2023/02/16 01:25:23;;;;;;;22.40;12.00;;;-0.70;99.90;;;;;;4956898;28;20860;-76
2023/02/16 01:27:49;;;;;;;19.73;10.97;;;-0.70;99.90;;;;;;4956620;28;20715;-73
2023/02/16 01:30:22;;;;;;;18.07;10.13;;;-0.70;99.90;;;;;;4972463;28;20195;-73
2023/02/16 01:32:50;;;;;;;18.83;11.13;;;-0.80;99.90;;;;;;4975647;28;20309;-73
2023/02/16 01:35:19;;;;;;;15.27;9.40;;;-0.80;99.90;;;;;;4975713;28;20422;-73
2023/02/16 01:37:45;;;;;;;18.03;10.23;;;-0.80;99.90;;;;;;4968070;28;21012;-73
2023/02/16 01:40:31;;;;;;;18.33;10.20;;;-0.80;99.90;;;;;;4975808;28;20418;-74
2023/02/16 01:43:21;;;;;;;19.90;9.93;;;-0.80;99.90;;;;;;4954689;28;20215;-73
2023/02/16 01:46:18;;;;;;;22.73;11.13;;;-0.80;99.90;;;;;;4968272;28;20421;-73
2023/02/16 01:48:44;;;;;;;20.90;12.20;;;-0.70;99.90;;;;;;4952731;28;20430;-74
2023/02/16 01:51:49;;;;;;;20.53;11.33;;;-0.80;99.90;;;;;;4975451;28;20815;-74
2023/02/16 01:54:43;;;;;;;18.73;10.10;;;-0.80;99.90;;;;;;4958685;28;20271;-73
2023/02/16 01:57:11;;;;;;;19.03;10.80;;;-0.80;99.90;;;;;;4975160;28;20463;-74
2023/02/16 02:00:00;;;;;;;20.20;11.47;;;-0.80;99.90;;;;;;4975009;28;20472;-74
2023/02/16 03:30:28;;;;;;;18.40;10.70;;;-1.30;99.90;;;;;;6046877;23;20341;-73
2023/02/16 03:32:54;;;;;;;18.60;11.17;;;-1.30;99.90;;;;;;5001123;28;20458;-74
2023/02/16 03:35:20;;;;;;;23.40;10.47;;;-1.30;99.90;;;;;;5007129;28;20446;-74
2023/02/16 03:37:46;;;;;;;13.90;9.20;;;-1.30;99.90;;;;;;5008190;28;20218;-74
2023/02/16 03:40:27;;;;;;;15.57;9.47;;;-1.30;99.90;;;;;;5006815;28;20796;-74
2023/02/16 03:42:54;;;;;;;18.33;10.30;;;-1.30;99.90;;;;;;4984563;28;20775;-74
2023/02/16 03:45:20;;;;;;;18.80;11.27;;;-1.30;99.90;;;;;;4971647;28;20440;-74
2023/02/16 03:47:46;;;;;;;26.97;11.37;;;-1.30;99.90;;;;;;4972939;28;20442;-74
2023/02/16 03:50:12;;;;;;;18.40;11.03;;;-1.30;99.90;;;;;;4987082;28;20447;-74
2023/02/16 03:52:37;;;;;;;14.77;10.47;;;-1.30;99.90;;;;;;4991431;28;20242;-74
2023/02/16 03:55:03;;;;;;;21.83;11.70;;;-1.30;99.90;;;;;;4991767;28;20206;-75
2023/02/16 03:57:28;;;;;;;17.67;10.80;;;-1.30;99.90;;;;;;4991448;28;20320;-74
2023/02/16 03:59:54;;;;;;;14.33;10.67;;;-1.30;99.90;;;;;;4991714;28;20244;-75
2023/02/16 04:02:20;;;;;;;20.90;12.60;;;-1.30;99.90;;;;;;4991409;28;20205;-75
2023/02/16 04:04:46;;;;;;;21.97;11.53;;;-1.20;99.90;;;;;;4991520;28;20198;-75
2023/02/16 04:07:12;;;;;;;29.60;11.17;;;-1.20;99.90;;;;;;4991579;28;20446;-75
2023/02/16 04:09:37;;;;;;;17.53;12.07;;;-1.20;99.90;;;;;;4991358;28;20472;-74
2023/02/16 04:14:47;;;;;;;23.17;10.77;;;-1.20;99.90;;;;;;4990766;28;20220;-74
2023/02/16 04:17:13;;;;;;;20.20;11.33;;;-1.10;99.90;;;;;;4990951;28;20487;-73
2023/02/16 04:19:38;;;;;;;21.57;11.73;;;-1.20;99.90;;;;;;4991427;28;20209;-74
2023/02/16 04:22:04;;;;;;;16.57;11.10;;;-1.20;99.90;;;;;;4991249;28;20216;-73
2023/02/16 04:24:29;;;;;;;21.17;11.73;;;-1.20;99.90;;;;;;4991311;28;20276;-74
2023/02/16 04:26:55;;;;;;;16.97;10.20;;;-1.20;99.90;;;;;;4991126;28;20200;-75
2023/02/16 04:29:21;;;;;;;15.93;9.80;;;-1.20;99.90;;;;;;4991851;28;20559;-74
2023/02/16 04:31:46;;;;;;;19.10;10.97;;;-1.20;99.90;;;;;;4990544;28;20228;-75
2023/02/16 04:34:12;;;;;;;25.53;11.30;;;-1.20;99.90;;;;;;4991387;28;20247;-75
2023/02/16 04:36:37;;;;;;;16.43;10.90;;;-1.20;99.90;;;;;;4990619;28;20299;-75
2023/02/16 04:39:03;;;;;;;19.57;11.90;;;-1.20;99.90;;;;;;4991253;28;20223;-74
2023/02/16 04:41:28;;;;;;;16.60;11.17;;;-1.20;99.90;;;;;;4990886;28;20220;-75
2023/02/16 04:43:54;;;;;;;18.23;11.17;;;-1.30;99.90;;;;;;4991316;28;20695;-75
2023/02/16 04:46:19;;;;;;;23.63;11.27;;;-1.30;99.90;;;;;;4991163;28;20204;-73
2023/02/16 04:48:45;;;;;;;20.50;11.50;;;-1.30;99.90;;;;;;4990834;28;20559;-75
2023/02/16 04:51:10;;;;;;;20.73;11.30;;;-1.30;99.90;;;;;;4994901;28;20214;-75
2023/02/16 04:53:36;;;;;;;29.37;13.10;;;-1.30;99.90;;;;;;4994958;28;20196;-75
2023/02/16 04:56:01;;;;;;;14.93;10.10;;;-1.40;99.90;;;;;;4994777;28;20198;-75
2023/02/16 04:58:27;;;;;;;20.07;10.67;;;-1.40;99.90;;;;;;4994823;28;20706;-74
2023/02/16 05:00:52;;;;;;;22.03;11.50;;;-1.40;99.90;;;;;;4994343;28;20212;-75
2023/02/16 05:03:18;;;;;;;35.87;11.40;;;-1.40;99.90;;;;;;4994986;28;20693;-75
2023/02/16 05:05:43;;;;;;;22.77;10.90;;;-1.50;99.90;;;;;;4994458;28;20300;-75
2023/02/16 05:08:09;;;;;;;14.77;9.57;;;-1.50;99.90;;;;;;4994714;28;20199;-75
2023/02/16 05:10:35;;;;;;;22.23;11.70;;;-1.50;99.90;;;;;;4994734;28;20216;-75
2023/02/16 05:15:45;;;;;;;19.80;10.63;;;-1.60;99.90;;;;;;4994537;28;20209;-76
2023/02/16 05:18:11;;;;;;;24.47;11.33;;;-1.60;99.90;;;;;;4994205;28;20977;-75
2023/02/16 05:23:21;;;;;;;21.50;10.40;;;-1.60;99.90;;;;;;4979205;28;20194;-76
2023/02/16 05:25:47;;;;;;;16.03;10.43;;;-1.70;99.90;;;;;;4986817;28;20928;-74
2023/02/16 05:28:12;;;;;;;17.30;11.13;;;-1.70;99.90;;;;;;4994326;28;20280;-75
2023/02/16 05:30:38;;;;;;;26.27;11.43;;;-1.70;99.90;;;;;;4993078;28;20263;-75
2023/02/16 05:33:03;;;;;;;20.80;11.60;;;-1.70;99.90;;;;;;4987520;28;20287;-73
2023/02/16 05:35:29;;;;;;;24.30;12.03;;;-1.70;99.90;;;;;;4994508;28;20573;-75
2023/02/16 05:37:55;;;;;;;22.23;10.90;;;-1.80;99.90;;;;;;4975258;28;20208;-76
2023/02/16 05:40:20;;;;;;;18.30;9.83;;;-1.80;99.90;;;;;;4975471;28;20261;-75
2023/02/16 05:42:46;;;;;;;24.40;12.20;;;-1.80;99.90;;;;;;4985265;28;20200;-75
2023/02/16 05:45:11;;;;;;;20.03;10.97;;;-1.80;99.90;;;;;;4994337;28;20234;-75
2023/02/16 05:47:37;;;;;;;22.50;11.40;;;-1.80;99.90;;;;;;4993965;28;20197;-76
2023/02/16 05:50:02;;;;;;;19.67;11.20;;;-1.80;99.90;;;;;;4994459;28;20195;-76
2023/02/16 05:52:28;;;;;;;17.10;9.67;;;-1.80;99.90;;;;;;4986606;28;20241;-76
2023/02/16 05:54:53;;;;;;;23.10;11.03;;;-1.80;99.90;;;;;;4974914;28;20184;-74
2023/02/16 05:57:19;;;;;;;14.13;9.77;;;-1.80;99.90;;;;;;4989489;28;20216;-74
2023/02/16 05:59:44;;;;;;;21.73;10.53;;;-1.80;99.90;;;;;;4993746;28;20188;-75
2023/02/16 06:02:10;;;;;;;16.37;10.23;;;-1.80;99.90;;;;;;4992783;28;20578;-75
2023/02/16 06:04:35;;;;;;;15.77;10.83;;;-1.80;99.90;;;;;;4989839;28;20192;-76
2023/02/16 06:07:01;;;;;;;20.03;11.80;;;-1.80;99.90;;;;;;4993458;28;20203;-76
2023/02/16 06:09:27;;;;;;;19.20;10.77;;;-1.80;99.90;;;;;;4986670;28;20190;-75
2023/02/16 06:11:52;;;;;;;23.13;11.77;;;-1.70;99.90;;;;;;4986232;28;20286;-71
2023/02/16 06:14:19;;;;;;;19.50;11.73;;;-1.80;99.90;;;;;;4990472;28;20230;-73
2023/02/16 06:16:47;;;;;;;27.07;10.97;;;-1.80;99.90;;;;;;4992043;28;20903;-74
2023/02/16 06:19:15;;;;;;;20.63;10.40;;;-1.80;99.90;;;;;;4963123;28;20412;-72
2023/02/16 06:21:41;;;;;;;19.03;11.90;;;-1.70;99.90;;;;;;4989485;28;20473;-75
2023/02/16 06:24:08;;;;;;;19.37;12.23;;;-1.60;99.90;;;;;;4974055;28;20436;-71
2023/02/16 06:26:34;;;;;;;25.07;13.43;;;-1.60;99.90;;;;;;4989150;28;20478;-69
2023/02/16 06:28:59;;;;;;;20.03;11.40;;;-1.70;99.90;;;;;;4989766;28;20431;-72
2023/02/16 06:31:26;;;;;;;26.30;12.40;;;-1.70;99.90;;;;;;4991970;28;20519;-73
2023/02/16 06:33:52;;;;;;;24.07;11.73;;;-1.60;99.90;;;;;;4992218;28;20230;-73
2023/02/16 06:36:18;;;;;;;34.13;15.57;;;-1.60;99.90;;;;;;4993161;28;20410;-74
2023/02/16 06:38:44;;;;;;;29.03;14.73;;;-1.60;99.90;;;;;;4992910;28;20437;-74
2023/02/16 06:41:10;;;;;;;24.57;13.53;;;-1.60;99.90;;;;;;4992922;28;20447;-74
2023/02/16 06:43:36;;;;;;;27.40;14.83;;;-1.60;99.90;;;;;;4992892;28;20189;-74
2023/02/16 06:46:01;;;;;;;19.33;12.40;;;-1.60;99.90;;;;;;4992830;28;20451;-75
2023/02/16 06:48:27;;;;;;;19.67;11.10;;;-1.60;99.90;;;;;;4992740;28;20207;-75
2023/02/16 06:50:52;;;;;;;25.67;13.90;;;-1.60;99.90;;;;;;4990236;28;20658;-73
2023/02/16 06:53:19;;;;;;;21.07;11.43;;;-1.60;99.90;;;;;;4973720;28;20185;-71
2023/02/16 06:55:44;;;;;;;25.00;12.23;;;-1.60;99.90;;;;;;4973650;28;20324;-72
2023/02/16 06:58:10;;;;;;;17.53;11.47;;;-1.50;99.90;;;;;;4971868;28;20549;-72
2023/02/16 07:00:36;;;;;;;25.20;13.70;;;-1.40;99.90;;;;;;4971652;28;20190;-73
2023/02/16 07:03:01;;;;;;;28.70;12.97;;;-1.40;99.90;;;;;;4984914;28;20267;-73
2023/02/16 07:05:27;;;;;;;22.73;12.67;;;-1.30;99.90;;;;;;4992172;28;20188;-74
2023/02/16 07:07:52;;;;;;;21.93;12.53;;;-1.30;99.90;;;;;;4991042;28;20191;-72
2023/02/16 07:10:19;;;;;;;22.40;12.10;;;-1.40;99.90;;;;;;4992675;28;20193;-72
2023/02/16 07:12:45;;;;;;;15.47;11.70;;;-1.30;99.90;;;;;;4992036;28;20193;-73
2023/02/16 07:15:11;;;;;;;21.03;11.90;;;-1.30;99.90;;;;;;4992474;28;20472;-74
2023/02/16 07:17:36;;;;;;;23.70;12.80;;;-1.20;99.90;;;;;;4984446;28;20552;-73
2023/02/16 07:20:04;;;;;;;24.43;13.00;;;-1.10;99.90;;;;;;4992727;28;20186;-73
2023/02/16 07:22:30;;;;;;;19.43;11.63;;;-1.00;99.90;;;;;;4985428;28;20207;-74
2023/02/16 07:24:56;;;;;;;28.10;12.17;;;-0.90;99.90;;;;;;4983609;28;20424;-73
2023/02/16 07:27:22;;;;;;;21.13;12.03;;;-0.80;99.90;;;;;;4992223;28;20215;-71
2023/02/16 07:29:47;;;;;;;19.03;11.73;;;-0.70;99.90;;;;;;4990644;28;20431;-73
2023/02/16 07:32:13;;;;;;;21.83;12.00;;;-0.20;99.90;;;;;;4973194;28;20538;-72
2023/02/16 07:34:38;;;;;;;24.37;13.37;;;1.10;99.90;;;;;;4973453;28;20197;-73
2023/02/16 07:37:04;;;;;;;19.60;12.53;;;2.60;99.90;;;;;;4973319;28;20211;-74
2023/02/16 07:39:30;;;;;;;15.63;9.90;;;4.10;99.90;;;;;;4988931;28;20215;-74
2023/02/16 07:41:55;;;;;;;20.00;11.40;;;5.30;99.90;;;;;;4991708;28;20301;-72
2023/02/16 07:44:21;;;;;;;16.53;9.73;;;6.40;99.90;;;;;;4992099;28;20194;-71
2023/02/16 07:46:46;;;;;;;18.00;10.90;;;7.70;99.90;;;;;;4991554;28;20195;-71
2023/02/16 07:49:12;;;;;;;21.50;12.97;;;8.10;99.90;;;;;;4991872;28;20199;-72
2023/02/16 07:51:39;;;;;;;24.43;12.00;;;8.70;99.90;;;;;;4991903;28;20249;-70
2023/02/16 07:54:05;;;;;;;85.93;30.47;;;8.80;99.90;;;;;;4984099;28;20179;-72
2023/02/16 07:56:32;;;;;;;18.53;11.80;;;9.50;99.90;;;;;;4984832;28;20443;-72
2023/02/16 07:58:59;;;;;;;18.13;11.80;;;9.30;99.90;;;;;;4991997;28;20215;-72
2023/02/16 08:01:26;;;;;;;18.50;11.13;;;9.60;99.90;;;;;;4985742;28;20458;-71
2023/02/16 08:03:52;;;;;;;16.53;10.80;;;9.90;99.90;;;;;;4989599;28;20445;-70
2023/02/16 08:06:18;;;;;;;16.80;11.50;;;10.20;99.90;;;;;;4991456;28;20839;-72
2023/02/16 08:08:44;;;;;;;19.60;11.23;;;10.30;99.90;;;;;;4991194;28;20509;-72
2023/02/16 08:11:16;;;;;;;15.77;12.50;;;10.00;99.90;;;;;;4991470;28;20438;-72
2023/02/16 08:13:42;;;;;;;17.43;12.23;;;9.90;99.90;;;;;;4991222;28;20437;-72
2023/02/16 08:16:14;;;;;;;21.97;13.50;;;9.80;99.90;;;;;;4991229;28;20488;-72
2023/02/16 08:18:43;;;;;;;19.33;12.77;;;9.40;99.90;;;;;;4990895;28;20584;-70
2023/02/16 08:21:16;;;;;;;15.63;12.70;;;9.30;99.90;;;;;;4979764;28;20435;-72
2023/02/16 08:23:46;;;;;;;22.73;13.40;;;8.70;99.90;;;;;;4987703;28;20868;-71
2023/02/16 08:26:13;;;;;;;17.37;12.50;;;8.40;99.90;;;;;;4991070;28;20437;-72
2023/02/16 08:28:44;;;;;;;18.47;13.53;;;8.30;99.90;;;;;;4975901;28;20518;-72
2023/02/16 08:31:12;;;;;;;19.33;13.87;;;8.50;99.90;;;;;;4976203;28;20469;-72
2023/02/16 08:33:37;;;;;;;21.70;13.83;;;8.50;99.90;;;;;;4991213;28;20988;-72
2023/02/16 08:36:03;;;;;;;19.03;13.20;;;8.30;99.90;;;;;;4990968;28;20428;-72
2023/02/16 08:38:31;;;;;;;23.40;13.50;;;8.30;99.90;;;;;;4991178;28;20245;-72
2023/02/16 08:40:58;;;;;;;18.53;12.70;;;8.30;99.90;;;;;;4966056;28;20465;-72
2023/02/16 08:43:23;;;;;;;27.80;14.57;;;8.60;99.90;;;;;;4978095;28;20943;-72
2023/02/16 08:45:50;;;;;;;19.23;13.70;;;8.80;99.90;;;;;;4972298;28;20460;-72
2023/02/16 08:48:16;;;;;;;21.40;14.00;;;8.80;99.90;;;;;;4984613;28;20186;-73
2023/02/16 08:50:52;;;;;;;22.27;14.37;;;8.80;99.90;;;;;;4989665;28;20469;-73
2023/02/16 08:53:20;;;;;;;20.03;13.70;;;9.00;99.90;;;;;;4991328;28;20922;-72
2023/02/16 08:55:55;;;;;;;30.00;16.13;;;9.20;99.90;;;;;;4974976;28;20438;-71
2023/02/16 08:58:21;;;;;;;22.60;15.20;;;9.30;99.90;;;;;;4972221;28;20480;-73
2023/02/16 09:00:47;;;;;;;22.00;14.77;;;9.50;99.90;;;;;;4972342;28;20465;-72
2023/02/16 09:03:12;;;;;;;31.43;17.07;;;9.80;99.90;;;;;;4984089;28;20835;-71
2023/02/16 09:05:39;;;;;;;22.90;16.00;;;9.90;99.90;;;;;;4991096;28;20627;-72
2023/02/16 09:08:04;;;;;;;25.03;17.20;;;10.30;99.90;;;;;;4990509;28;20187;-72
2023/02/16 09:10:30;;;;;;;25.17;16.50;;;10.50;99.90;;;;;;4991207;28;20430;-73
2023/02/16 09:12:55;;;;;;;21.73;16.17;;;10.80;99.90;;;;;;4990676;28;20191;-73
2023/02/16 09:15:21;;;;;;;24.10;16.57;;;11.20;99.90;;;;;;4986157;28;20224;-72
2023/02/16 09:17:47;;;;;;;25.90;16.30;;;11.50;99.90;;;;;;4972086;28;20214;-72
2023/02/16 09:20:12;;;;;;;27.60;18.73;;;11.70;99.90;;;;;;4972121;28;20187;-72
2023/02/16 09:22:38;;;;;;;59.50;34.73;;;11.90;99.90;;;;;;4972214;28;20275;-73
2023/02/16 09:25:06;;;;;;;33.03;21.30;;;12.40;99.90;;;;;;4990331;28;20620;-73
2023/02/16 09:27:32;;;;;;;27.23;15.67;;;12.70;99.90;;;;;;4990866;28;20188;-72
2023/02/16 09:29:58;;;;;;;25.37;14.37;;;13.20;99.90;;;;;;4990591;28;20460;-73
2023/02/16 09:32:28;;;;;;;18.43;14.00;;;13.40;99.90;;;;;;4990928;28;20564;-73
2023/02/16 09:34:54;;;;;;;21.93;13.53;;;14.10;99.90;;;;;;4990413;28;20257;-72
2023/02/16 09:37:19;;;;;;;15.50;11.20;;;14.60;99.90;;;;;;4994406;28;20469;-73
2023/02/16 09:39:46;;;;;;;15.00;10.87;;;14.90;99.90;;;;;;4994187;28;20202;-72
2023/02/16 09:42:33;;;;;;;15.57;11.20;;;15.20;99.90;;;;;;4994335;28;20219;-73
2023/02/16 09:45:12;;;;;;;17.30;10.40;;;15.40;99.90;;;;;;4984221;28;20426;-73
2023/02/16 09:47:46;;;;;;;17.77;10.50;;;15.40;99.90;;;;;;4982542;28;20807;-73
2023/02/16 09:50:18;;;;;;;19.47;10.77;;;15.60;99.90;;;;;;4986520;28;20484;-73
2023/02/16 09:52:59;;;;;;;15.77;9.57;;;16.10;99.90;;;;;;4994259;28;20599;-75
2023/02/16 09:55:33;;;;;;;12.90;8.37;;;16.50;99.90;;;;;;4975412;28;20434;-74
2023/02/16 09:58:18;;;;;;;14.40;8.60;;;16.70;99.90;;;;;;4984411;28;20466;-73
2023/02/16 10:01:08;;;;;;;11.20;7.77;;;16.90;99.90;;;;;;4994282;28;20442;-74
2023/02/16 10:03:40;;;;;;;9.57;7.47;;;16.90;99.90;;;;;;4975293;28;20464;-74
2023/02/16 10:06:12;;;;;;;14.17;8.43;;;17.00;99.90;;;;;;4974990;28;20419;-74
2023/02/16 10:08:45;;;;;;;12.20;8.03;;;17.10;99.90;;;;;;4990131;28;20939;-75
2023/02/16 10:14:12;;;;;;;14.63;7.57;;;16.90;99.90;;;;;;4982618;28;20421;-75
2023/02/16 10:16:51;;;;;;;15.80;7.87;;;16.80;99.90;;;;;;4964398;28;20532;-74
2023/02/16 10:19:25;;;;;;;12.50;7.30;;;16.70;99.90;;;;;;4993877;28;20431;-74
2023/02/16 10:21:56;;;;;;;12.30;7.30;;;16.80;99.90;;;;;;4985955;28;20492;-73
2023/02/16 10:24:24;;;;;;;13.00;7.10;;;17.20;99.90;;;;;;4993635;28;20441;-74
2023/02/16 10:27:01;;;;;;;13.10;7.20;;;17.60;99.90;;;;;;4985400;28;20805;-74
2023/02/16 10:29:26;;;;;;;14.57;8.03;;;17.80;99.90;;;;;;4980125;28;20866;-75
2023/02/16 10:32:15;;;;;;;15.87;6.70;;;17.80;99.90;;;;;;4993340;28;20548;-74
2023/02/16 10:34:50;;;;;;;10.63;7.60;;;17.50;99.60;;;;;;4993840;28;20233;-75
2023/02/16 10:37:41;;;;;;;13.83;7.07;;;17.50;99.80;;;;;;4985912;28;20898;-75
2023/02/16 10:40:28;;;;;;;13.43;6.90;;;17.80;99.90;;;;;;4985526;28;20791;-74
2023/02/16 10:43:03;;;;;;;12.37;7.20;;;18.40;98.20;;;;;;4992800;28;20448;-74
2023/02/16 10:45:49;;;;;;;14.03;7.30;;;18.40;97.00;;;;;;4987813;28;20454;-74
2023/02/16 10:48:15;;;;;;;10.33;6.43;;;18.80;97.40;;;;;;4975234;28;20431;-74
2023/02/16 10:50:46;;;;;;;10.40;7.00;;;19.10;97.10;;;;;;4993613;28;20455;-74
2023/02/16 10:53:17;;;;;;;15.90;6.37;;;19.10;96.60;;;;;;4992962;28;20282;-74
2023/02/16 10:55:43;;;;;;;8.73;5.70;;;19.20;95.40;;;;;;4993276;28;20453;-74
2023/02/16 10:58:18;;;;;;;9.90;6.57;;;19.20;95.10;;;;;;4992530;28;20470;-74
2023/02/16 11:01:08;;;;;;;10.20;6.73;;;19.10;94.00;;;;;;4986059;28;20699;-74
2023/02/16 11:03:43;;;;;;;10.30;6.27;;;19.10;93.60;;;;;;4980256;28;20422;-76
2023/02/16 11:06:21;;;;;;;9.40;5.67;;;19.40;94.40;;;;;;4993792;28;20492;-74
2023/02/16 11:08:55;;;;;;;8.40;6.00;;;19.50;93.10;;;;;;4994522;28;21030;-74
2023/02/16 11:11:23;;;;;;;7.80;5.87;;;19.50;92.00;;;;;;4995205;28;20446;-74
2023/02/16 11:13:56;;;;;;;17.20;6.10;;;19.10;91.60;;;;;;4993291;28;20875;-74
2023/02/16 11:16:23;;;;;;;6.87;5.70;;;19.10;92.10;;;;;;4989344;28;20433;-72
2023/02/16 11:18:57;;;;;;;11.17;8.27;;;19.30;93.70;;;;;;4990506;28;20472;-74
2023/02/16 11:21:49;;;;;;;8.17;5.37;;;19.60;92.50;;;;;;4993351;28;21012;-74
2023/02/16 11:24:32;;;;;;;19.13;9.80;;;19.70;91.70;;;;;;4992467;28;20430;-71
2023/02/16 11:27:19;;;;;;;14.70;9.93;;;19.30;92.50;;;;;;4992582;28;20426;-74
2023/02/16 11:29:45;;;;;;;9.53;5.50;;;19.40;93.30;;;;;;4968329;28;20519;-75
2023/02/16 11:32:12;;;;;;;15.17;7.37;;;19.00;92.00;;;;;;4991929;28;20616;-74
2023/02/16 11:34:50;;;;;;;14.47;7.13;;;19.10;94.20;;;;;;4994111;28;20191;-75
2023/02/16 11:37:27;;;;;;;9.70;5.47;;;19.00;91.90;;;;;;4992980;28;20474;-73
2023/02/16 11:40:01;;;;;;;9.47;5.87;;;18.90;92.20;;;;;;4992085;28;20930;-73
2023/02/16 11:42:33;;;;;;;8.47;5.47;;;18.60;92.50;;;;;;4992263;28;20474;-74
2023/02/16 11:45:01;;;;;;;12.93;7.07;;;18.70;92.50;;;;;;4991756;28;20454;-75
2023/02/16 11:47:33;;;;;;;13.60;6.60;;;18.50;92.90;;;;;;4992009;28;20431;-74
2023/02/16 11:50:18;;;;;;;9.70;5.70;;;18.50;92.70;;;;;;4991718;28;20803;-74
2023/02/16 11:52:47;;;;;;;12.73;6.20;;;18.40;92.50;;;;;;4992018;28;20482;-74
2023/02/16 11:55:32;;;;;;;12.10;6.43;;;18.40;93.40;;;;;;4955907;28;21011;-74
2023/02/16 11:58:26;;;;;;;12.93;6.93;;;18.10;94.10;;;;;;4972615;28;21005;-74
2023/02/16 12:01:03;;;;;;;11.40;6.83;;;18.10;93.90;;;;;;4972484;28;20530;-71
2023/02/16 12:03:59;;;;;;;11.90;6.90;;;18.00;94.20;;;;;;4977788;28;20521;-71
2023/02/16 12:06:37;;;;;;;10.77;6.30;;;18.20;95.80;;;;;;4979055;28;20430;-71
2023/02/16 12:09:24;;;;;;;9.57;5.53;;;18.20;94.90;;;;;;4990783;28;20422;-71
2023/02/16 12:11:58;;;;;;;13.33;7.33;;;18.30;93.70;;;;;;4975687;28;20482;-73
2023/02/16 12:15:02;;;;;;;11.30;7.03;;;18.20;94.10;;;;;;4983371;28;20966;-74
2023/02/16 12:18:00;;;;;;;12.93;6.37;;;18.30;94.20;;;;;;4957710;28;20995;-74
2023/02/16 12:20:53;;;;;;;11.37;6.50;;;18.40;95.20;;;;;;4955226;28;20462;-74
2023/02/16 12:23:33;;;;;;;12.87;7.20;;;18.30;95.50;;;;;;4983373;28;20975;-75
2023/02/16 12:26:41;;;;;;;15.30;6.87;;;18.30;94.80;;;;;;4989948;28;20469;-74
2023/02/16 12:29:36;;;;;;;9.33;6.00;;;18.30;94.50;;;;;;4978105;28;20430;-75
2023/02/16 12:32:16;;;;;;;11.60;6.50;;;18.20;95.70;;;;;;4990919;28;20473;-74
2023/02/16 12:35:20;;;;;;;11.43;6.53;;;18.20;94.50;;;;;;4991403;28;20531;-75
2023/02/16 12:38:27;;;;;;;9.00;5.90;;;18.00;94.50;;;;;;4972474;28;20466;-74
2023/02/16 12:41:03;;;;;;;9.70;6.23;;;17.70;94.70;;;;;;4967115;28;20455;-74
2023/02/16 12:43:37;;;;;;;7.50;5.53;;;17.50;96.10;;;;;;4984485;28;20462;-74
2023/02/16 12:46:13;;;;;;;11.03;6.23;;;17.50;96.50;;;;;;4990709;28;20473;-73
2023/02/16 12:48:51;;;;;;;11.07;5.97;;;17.40;97.10;;;;;;4991119;28;20521;-74
2023/02/16 12:51:29;;;;;;;12.57;7.13;;;17.30;96.40;;;;;;4988374;28;20457;-75
2023/02/16 12:54:26;;;;;;;14.37;6.40;;;17.20;97.50;;;;;;4970572;28;20478;-72
2023/02/16 12:56:59;;;;;;;9.77;6.37;;;17.10;97.60;;;;;;4972066;28;20467;-74
2023/02/16 12:59:37;;;;;;;10.93;7.03;;;16.80;98.00;;;;;;4972388;28;20427;-74
2023/02/16 13:02:10;;;;;;;11.20;7.00;;;16.70;98.10;;;;;;4972283;28;20435;-74
2023/02/16 13:04:42;;;;;;;10.40;5.60;;;16.70;99.30;;;;;;4972320;28;20431;-74
2023/02/16 13:07:25;;;;;;;16.87;6.67;;;16.60;99.80;;;;;;4989390;28;20445;-73
2023/02/16 13:10:05;;;;;;;10.50;7.00;;;16.60;99.90;;;;;;4991361;28;20430;-74
2023/02/16 13:12:40;;;;;;;13.30;7.57;;;16.60;99.30;;;;;;4994634;28;20547;-74
2023/02/16 13:15:17;;;;;;;11.70;6.10;;;16.70;99.90;;;;;;4994046;28;20437;-74
2023/02/16 13:17:48;;;;;;;10.57;5.90;;;16.70;99.90;;;;;;4988577;28;20466;-72
2023/02/16 13:20:16;;;;;;;11.43;6.53;;;16.50;99.90;;;;;;4978286;28;20783;-71
2023/02/16 13:22:59;;;;;;;11.97;6.57;;;16.50;99.90;;;;;;4994435;28;20465;-72
2023/02/16 13:25:46;;;;;;;10.43;7.00;;;16.50;99.90;;;;;;4995631;28;20899;-72
2023/02/16 13:28:54;;;;;;;18.93;7.40;;;16.30;99.90;;;;;;4994367;28;20430;-72
2023/02/16 13:31:34;;;;;;;10.37;6.43;;;16.10;99.90;;;;;;4993687;28;20523;-72
2023/02/16 13:34:30;;;;;;;14.90;6.00;;;16.00;99.90;;;;;;4994250;28;20422;-72
2023/02/16 13:37:25;;;;;;;11.23;6.17;;;16.00;99.90;;;;;;4976776;28;20516;-72
2023/02/16 13:40:06;;;;;;;16.10;6.87;;;16.00;99.90;;;;;;4975608;28;20478;-72
2023/02/16 13:43:04;;;;;;;13.87;7.57;;;16.00;99.90;;;;;;4982196;28;20447;-72
2023/02/16 13:45:34;;;;;;;15.80;7.60;;;15.80;99.90;;;;;;4969366;28;20421;-72
2023/02/16 13:48:00;;;;;;;12.97;6.60;;;15.80;99.90;;;;;;4994122;28;20433;-71
2023/02/16 13:50:30;;;;;;;15.57;8.00;;;15.70;99.90;;;;;;4994064;28;20430;-72
2023/02/16 13:53:08;;;;;;;9.63;6.77;;;15.60;99.90;;;;;;4994546;28;20449;-71
2023/02/16 13:55:37;;;;;;;13.70;7.50;;;15.60;99.90;;;;;;4981806;28;20436;-72
2023/02/16 13:58:06;;;;;;;12.67;6.80;;;15.70;99.90;;;;;;4974654;28;21027;-72
2023/02/16 14:00:34;;;;;;;11.67;7.73;;;15.80;99.90;;;;;;4975377;28;20796;-73
2023/02/16 14:03:30;;;;;;;17.97;7.80;;;15.90;99.90;;;;;;4991962;28;20418;-75
2023/02/16 14:06:25;;;;;;;11.27;6.53;;;15.80;99.90;;;;;;4995933;28;20431;-76
2023/02/16 14:09:10;;;;;;;14.70;8.47;;;15.70;99.90;;;;;;4987331;28;20431;-73
2023/02/16 14:11:53;;;;;;;14.00;8.00;;;15.60;99.90;;;;;;4988648;28;20446;-72
2023/02/16 14:14:33;;;;;;;12.70;7.30;;;15.60;99.90;;;;;;4990378;28;20429;-73
2023/02/16 14:17:23;;;;;;;10.47;6.77;;;15.60;99.90;;;;;;4990787;28;20505;-72
2023/02/16 14:19:59;;;;;;;14.43;8.33;;;15.60;99.90;;;;;;4981043;28;20846;-72
2023/02/16 14:22:52;;;;;;;14.03;8.30;;;15.60;99.90;;;;;;4985205;28;20820;-72
2023/02/16 14:25:21;;;;;;;12.33;7.23;;;15.50;99.90;;;;;;4993557;28;20422;-72
2023/02/16 14:27:53;;;;;;;12.90;7.10;;;15.40;99.90;;;;;;4993479;28;20934;-72
2023/02/16 14:30:40;;;;;;;14.23;6.50;;;15.30;99.90;;;;;;4993188;28;20462;-73
2023/02/16 14:33:11;;;;;;;11.63;7.00;;;15.30;99.90;;;;;;4993433;28;20436;-73
2023/02/16 14:35:40;;;;;;;14.03;7.97;;;15.20;99.90;;;;;;4993434;28;20441;-72
2023/02/16 14:38:27;;;;;;;15.97;6.30;;;15.20;99.90;;;;;;4993075;28;21070;-72
2023/02/16 14:40:58;;;;;;;9.50;6.53;;;15.10;99.90;;;;;;4975845;28;20451;-72
2023/02/16 14:43:31;;;;;;;7.70;6.27;;;15.20;99.90;;;;;;4989914;28;20438;-73